Data for 04/30/2009

Time Sea-Level Adjusted Pressure Absolute Pressure Temperature Relative Humidity Dew Point   
(mb) (inHg) (mb) (inHg) (C) (F) (%) (C) (F)
00:05 1024 30.24 853 25.19 -2.5 27.4 85 -4.8 23.4
00:10 1024 30.24 853 25.19 -2.4 27.8 84 -4.7 23.5
00:15 1024 30.24 853 25.19 -2.2 28 84 -4.7 23.6
00:20 1024 30.24 853 25.19 -2.2 28 84 -4.6 23.7
00:25 1024 30.24 853 25.19 -2.4 27.7 84 -4.7 23.6
00:30 1024 30.24 853 25.19 -2.5 27.4 85 -4.7 23.5
00:35 1024 30.24 853 25.19 -2.7 27.2 85 -4.8 23.4
00:40 1024 30.24 853 25.19 -2.6 27.3 85 -4.8 23.3
00:45 1024 30.24 853 25.19 -2.6 27.4 84 -4.9 23.1
00:50 1024 30.24 853 25.19 -2.6 27.3 85 -4.9 23.3
00:55 1024 30.24 853 25.19 -2.6 27.4 85 -4.7 23.5
01:00 1023 30.21 853 25.19 -2.6 27.4 85 -4.8 23.4
01:05 1023 30.21 853 25.19 -2.7 27.1 85 -4.8 23.3
01:10 1023 30.21 853 25.19 -2.8 27 85 -4.9 23.1
01:15 1023 30.21 853 25.19 -2.8 27 85 -4.9 23.1
01:20 1023 30.21 853 25.19 -2.9 26.8 86 -4.9 23.1
01:25 1023 30.21 853 25.19 -2.8 26.9 85 -5 23
01:30 1023 30.21 853 25.19 -2.8 26.9 86 -4.9 23.2
01:35 1023 30.21 853 25.19 -2.8 27 85 -4.9 23.2
01:40 1023 30.21 853 25.19 -2.8 26.9 85 -4.9 23.1
01:45 1023 30.21 852 25.16 -2.8 27 85 -4.9 23.2
01:50 1023 30.21 852 25.16 -2.8 26.9 86 -4.9 23.2
01:55 1023 30.21 852 25.16 -2.7 27.1 84 -5 23
02:00 1023 30.21 852 25.16 -2.7 27.1 84 -5 23
02:05 1023 30.21 852 25.16 -2.7 27.1 86 -4.8 23.4
02:10 1023 30.21 852 25.16 -2.8 27 86 -4.8 23.3
02:15 1023 30.21 852 25.16 -2.8 26.9 86 -4.8 23.4
02:20 1023 30.21 852 25.16 -2.8 26.9 87 -4.7 23.6
02:25 1023 30.21 852 25.16 -2.8 27 87 -4.7 23.5
02:30 1023 30.21 852 25.16 -2.7 27.1 87 -4.6 23.6
02:35 1023 30.21 852 25.16 -2.8 27 87 -4.7 23.5
02:40 1023 30.21 852 25.16 -2.8 27 87 -4.6 23.7
02:45 1023 30.21 852 25.16 -2.8 27 88 -4.6 23.8
02:50 1023 30.21 852 25.16 -2.8 27 88 -4.5 23.9
02:55 1023 30.21 852 25.16 -2.9 26.8 89 -4.5 23.9
03:00 1023 30.21 852 25.16 -2.9 26.7 89 -4.5 24
03:05 1023 30.21 852 25.16 -3 26.5 90 -4.5 23.9
03:10 1023 30.21 852 25.16 -3.2 26.3 91 -4.5 24
03:15 1023 30.21 852 25.16 -3.2 26.3 91 -4.4 24
03:20 1023 30.21 852 25.16 -3.1 26.4 91 -4.3 24.2
03:25 1023 30.21 852 25.16 -3.1 26.3 92 -4.3 24.2
03:30 1023 30.21 852 25.16 -3.1 26.3 92 -4.3 24.3
03:35 1023 30.21 852 25.16 -3.1 26.4 92 -4.2 24.4
03:40 1023 30.21 852 25.16 -3.2 26.3 92 -4.3 24.3
03:45 1023 30.21 852 25.16 -3.2 26.2 93 -4.2 24.4
03:50 1023 30.21 852 25.16 -3.1 26.4 92 -4.3 24.3
03:55 1023 30.21 852 25.16 -3.2 26.3 92 -4.3 24.3
04:00 1023 30.21 852 25.16 -3.2 26.3 92 -4.3 24.3
04:05 1023 30.21 852 25.16 -3.2 26.2 92 -4.3 24.3
04:10 1023 30.21 852 25.16 -3.2 26.2 91 -4.4 24
04:15 1023 30.21 852 25.16 -3.1 26.3 91 -4.4 24.1
04:20 1023 30.21 852 25.16 -3 26.6 91 -4.3 24.3
04:25 1023 30.21 852 25.16 -2.9 26.8 90 -4.3 24.3
04:30 1023 30.21 852 25.16 -2.9 26.8 90 -4.4 24.2
04:35 1022 30.18 852 25.16 -2.9 26.8 89 -4.4 24
04:40 1022 30.18 852 25.16 -2.9 26.8 90 -4.4 24.2
04:45 1022 30.18 852 25.16 -2.9 26.7 90 -4.4 24.1
04:50 1022 30.18 852 25.16 -2.9 26.7 90 -4.3 24.2
04:55 1022 30.18 852 25.16 -3 26.6 90 -4.4 24.1
05:00 1022 30.18 852 25.16 -3.1 26.4 91 -4.3 24.2
05:05 1022 30.18 852 25.16 -3.2 26.2 92 -4.3 24.2
05:10 1022 30.18 852 25.16 -3.4 25.9 93 -4.4 24
05:15 1022 30.18 852 25.16 -3.5 25.7 93 -4.5 23.9
05:20 1022 30.18 851 25.13 -3.5 25.7 93 -4.4 24
05:25 1022 30.18 851 25.13 -3.4 25.8 94 -4.3 24.2
05:30 1022 30.18 851 25.13 -3.3 26 93 -4.3 24.3
05:35 1022 30.18 851 25.13 -3.2 26.2 93 -4.3 24.3
05:40 1022 30.18 851 25.13 -3.3 26.1 92 -4.3 24.2
05:45 1022 30.18 851 25.13 -3.5 25.6 93 -4.5 23.8
05:50 1022 30.18 851 25.13 -3.5 25.7 93 -4.5 23.9
05:55 1022 30.18 851 25.13 -3.5 25.8 92 -4.5 23.8
06:00 1022 30.18 851 25.13 -3.4 25.9 92 -4.5 23.9
06:05 1022 30.18 851 25.13 -3.4 25.9 92 -4.4 24
06:10 1022 30.18 851 25.13 -3.3 26.1 92 -4.3 24.2
06:15 1022 30.18 851 25.13 -3.3 26 93 -4.3 24.2
06:20 1022 30.18 851 25.13 -3.4 25.9 94 -4.3 24.3
06:25 1022 30.18 851 25.13 -3.4 25.9 93 -4.3 24.2
06:30 1022 30.18 851 25.13 -3.4 25.8 94 -4.3 24.3
06:35 1022 30.18 851 25.13 -3.4 25.9 93 -4.4 24.2
06:40 1022 30.18 851 25.13 -3.3 26 93 -4.4 24.2
06:45 1022 30.18 851 25.13 -3.2 26.2 93 -4.3 24.3
06:50 1022 30.18 851 25.13 -3.2 26.2 92 -4.4 24.1
06:55 1022 30.18 851 25.13 -3.2 26.3 91 -4.4 24.1
07:00 1022 30.18 851 25.13 -3.1 26.4 91 -4.4 24.1
07:05 1022 30.18 851 25.13 -3.2 26.2 92 -4.4 24.1
07:10 1022 30.18 851 25.13 -3.2 26.2 93 -4.3 24.3
07:15 1022 30.18 851 25.13 -3.3 26.1 93 -4.3 24.3
07:20 1022 30.18 851 25.13 -3.3 26.1 93 -4.3 24.3
07:25 1022 30.18 851 25.13 -3.3 26.1 93 -4.3 24.2
07:30 1022 30.18 851 25.13 -3.3 26.1 93 -4.3 24.2
07:35 1022 30.18 851 25.13 -3.3 26 93 -4.3 24.3
07:40 1022 30.18 851 25.13 -3.3 26 94 -4.2 24.5
07:45 1022 30.18 851 25.13 -3.2 26.2 93 -4.3 24.3
07:50 1022 30.18 851 25.13 -3.3 26.1 93 -4.2 24.4
07:55 1022 30.18 851 25.13 -3.1 26.4 91 -4.3 24.2
08:00 1022 30.18 851 25.13 -3 26.6 91 -4.2 24.4
08:05 1022 30.18 851 25.13 -2.9 26.7 91 -4.2 24.4
08:10 1022 30.18 851 25.13 -2.9 26.7 91 -4.2 24.5
08:15 1022 30.18 851 25.13 -2.8 27 90 -4.2 24.4
08:20 1022 30.18 851 25.13 -2.6 27.4 90 -4.1 24.7
08:25 1022 30.18 851 25.13 -2.4 27.6 90 -3.8 25.1
08:30 1022 30.18 852 25.16 -2.3 27.8 88 -4 24.8
08:35 1022 30.18 852 25.16 -2.3 27.8 89 -4 24.8
08:40 1022 30.18 852 25.16 -2 28.4 87 -3.8 25.1
08:45 1022 30.18 851 25.13 -1.6 29.1 87 -3.5 25.7
08:50 1022 30.18 851 25.13 -1.3 29.7 86 -3.3 26
08:55 1022 30.18 851 25.13 -1.1 30 86 -3.2 26.2
09:00 1022 30.18 851 25.13 -1.6 29.1 85 -3.8 25.2
09:05 1022 30.18 851 25.13 -1.8 28.8 86 -3.8 25.2
09:10 1022 30.18 851 25.13 -1.8 28.8 86 -3.8 25.1
09:15 1022 30.18 851 25.13 -1.5 29.4 85 -3.7 25.3
09:20 1022 30.18 851 25.13 -1.2 29.9 85 -3.4 25.9
09:25 1022 30.18 851 25.13 -0.9 30.4 84 -3.3 26.1
09:30 1022 30.18 851 25.13 -1.3 29.6 86 -3.4 25.9
09:35 1022 30.18 851 25.13 -1.1 29.9 85 -3.4 25.9
09:40 1022 30.18 851 25.13 -0.9 30.4 83 -3.4 25.9
09:45 1022 30.18 851 25.13 -0.7 30.7 82 -3.4 26
09:50 1022 30.18 851 25.13 -0.5 31.1 81 -3.3 26
09:55 1022 30.18 851 25.13 -0.5 31 79 -3.7 25.4
10:00 1022 30.18 851 25.13 -0.2 31.6 80 -3.2 26.2
10:05 1022 30.18 851 25.13 0.1 32.2 75 -3.9 25
10:10 1022 30.18 851 25.13 0.6 33.1 75 -3.3 26
10:15 1022 30.18 851 25.13 0.2 32.3 77 -3.5 25.8
10:20 1022 30.18 851 25.13 0 32 75 -3.9 25
10:25 1022 30.18 851 25.13 0.6 33.1 73 -3.7 25.4
10:30 1022 30.18 851 25.13 0.3 32.6 76 -3.3 26
10:35 1022 30.18 851 25.13 -0.1 31.8 80 -3.2 26.2
10:40 1022 30.18 851 25.13 0.1 32.2 76 -3.7 25.4
10:45 1022 30.18 851 25.13 0.5 32.8 74 -3.6 25.5
10:50 1022 30.18 851 25.13 0.1 32.2 76 -3.7 25.3
10:55 1022 30.18 851 25.13 0.2 32.4 73 -4 24.8
11:00 1022 30.18 851 25.13 0.7 33.2 71 -4 24.8
11:05 1022 30.18 851 25.13 0.7 33.3 72 -3.7 25.4
11:10 1022 30.18 851 25.13 0.2 32.4 74 -3.9 24.9
11:15 1022 30.18 851 25.13 0.5 32.9 72 -3.9 24.9
11:20 1022 30.18 851 25.13 0.6 33.2 72 -3.8 25.2
11:25 1022 30.18 851 25.13 0.9 33.5 72 -3.6 25.6
11:30 1022 30.18 851 25.13 1.1 33.9 71 -3.6 25.6
11:35 1022 30.18 851 25.13 1.2 34.2 70 -3.7 25.4
11:40 1022 30.18 851 25.13 1 33.8 70 -3.9 24.9
11:45 1022 30.18 851 25.13 0.9 33.7 72 -3.6 25.5
11:50 1022 30.18 851 25.13 1.3 34.3 69 -3.9 25
11:55 1022 30.18 851 25.13 1.9 35.5 66 -3.8 25.2
12:00 1022 30.18 851 25.13 2.2 36 64 -3.9 24.9
12:05 1022 30.18 851 25.13 2.2 35.9 64 -3.9 25
12:10 1022 30.18 851 25.13 2.3 36.1 64 -3.9 25.1
12:15 1022 30.18 851 25.13 2.1 35.7 65 -3.8 25.1
12:20 1022 30.18 851 25.13 2.5 36.4 63 -4 24.9
12:25 1022 30.18 851 25.13 3 37.4 61 -3.7 25.3
12:30 1022 30.18 851 25.13 3.2 37.7 63 -3.2 26.2
12:35 1022 30.18 851 25.13 1.9 35.3 68 -3.5 25.7
12:40 1022 30.18 851 25.13 2.4 36.3 66 -3.2 26.2
12:45 1021 30.15 851 25.13 1.8 35.3 69 -3.2 26.2
12:50 1022 30.18 851 25.13 1 33.8 70 -3.9 25
12:55 1021 30.15 851 25.13 1.1 34 72 -3.5 25.8
13:00 1021 30.15 851 25.13 1.1 34 72 -3.4 25.9
13:05 1021 30.15 851 25.13 1.8 35.2 70 -3.2 26.2
13:10 1021 30.15 851 25.13 1.3 34.3 70 -3.7 25.4
13:15 1021 30.15 851 25.13 2.1 35.8 67 -3.5 25.8
13:20 1021 30.15 851 25.13 2.3 36.1 66 -3.5 25.7
13:25 1021 30.15 851 25.13 1.8 35.2 69 -3.4 25.9
13:30 1021 30.15 851 25.13 1.1 33.9 73 -3.3 26
13:35 1021 30.15 851 25.13 0.9 33.7 71 -3.8 25.2
13:40 1021 30.15 851 25.13 1.1 33.9 71 -3.6 25.5
13:45 1021 30.15 851 25.13 1.4 34.6 68 -3.8 25.2
13:50 1021 30.15 851 25.13 1.3 34.3 70 -3.6 25.5
13:55 1021 30.15 851 25.13 1.9 35.4 67 -3.7 25.4
14:00 1021 30.15 851 25.13 3.1 37.5 61 -3.7 25.4
14:05 1021 30.15 851 25.13 3.1 37.6 66 -2.6 27.3
14:10 1021 30.15 851 25.13 2.6 36.6 65 -3.4 25.9
14:15 1021 30.15 851 25.13 1.9 35.4 68 -3.4 25.8
14:20 1021 30.15 851 25.13 2.6 36.7 64 -3.5 25.6
14:25 1021 30.15 851 25.13 2.8 37 63 -3.5 25.7
14:30 1021 30.15 851 25.13 3.3 37.9 64 -2.9 26.7
14:35 1021 30.15 851 25.13 3.3 37.9 62 -3.4 26
14:40 1021 30.15 851 25.13 3.4 38.1 62 -3.2 26.3
14:45 1021 30.15 851 25.13 2.5 36.6 66 -3.2 26.3
14:50 1021 30.15 851 25.13 2.9 37.2 65 -3.1 26.5
14:55 1022 30.18 851 25.13 2.7 36.8 68 -2.7 27.2
15:00 1022 30.18 851 25.13 1.8 35.2 70 -3.1 26.4
15:05 1022 30.18 851 25.13 2.1 35.7 68 -3.2 26.3
15:10 1022 30.18 851 25.13 1.8 35.3 68 -3.5 25.6
15:15 1022 30.18 851 25.13 2.3 36.1 66 -3.4 25.8
15:20 1022 30.18 851 25.13 2.2 36 67 -3.3 26.1
15:25 1021 30.15 851 25.13 2.2 35.9 68 -3.1 26.4
15:30 1021 30.15 851 25.13 2.8 37.1 64 -3.3 26.1
15:35 1021 30.15 851 25.13 3.6 38.5 61 -3.2 26.2
15:40 1021 30.15 851 25.13 4.2 39.6 60 -2.8 26.9
15:45 1021 30.15 851 25.13 3.2 37.7 65 -2.8 26.9
15:50 1022 30.18 851 25.13 2.5 36.4 66 -3.3 26.1
15:55 1022 30.18 851 25.13 2.4 36.3 66 -3.3 26.1
16:00 1022 30.18 851 25.13 2.8 37 64 -3.3 26.1
16:05 1022 30.18 851 25.13 3.4 38.1 62 -3.1 26.4
16:10 1022 30.18 851 25.13 3.5 38.3 63 -2.8 26.9
16:15 1022 30.18 851 25.13 3.4 38.1 63 -2.9 26.7
16:20 1021 30.15 851 25.13 3.5 38.3 63 -2.8 26.9
16:25 1022 30.18 851 25.13 3.6 38.4 61 -3.2 26.2
16:30 1022 30.18 851 25.13 3 37.4 65 -2.9 26.8
16:35 1022 30.18 851 25.13 2.8 37.1 65 -3.2 26.3
16:40 1022 30.18 851 25.13 3.1 37.5 65 -2.8 27
16:45 1022 30.18 851 25.13 3.1 37.6 62 -3.5 25.7
16:50 1022 30.18 851 25.13 3.5 38.2 62 -3.1 26.4
16:55 1022 30.18 851 25.13 3.4 38.1 63 -3 26.6
17:00 1022 30.18 851 25.13 3.1 37.6 61 -3.7 25.3
17:05 1022 30.18 851 25.13 3.8 38.9 61 -2.9 26.8
17:10 1022 30.18 851 25.13 3.3 38 64 -2.7 27.1
17:15 1022 30.18 851 25.13 3 37.4 65 -3 26.6
17:20 1022 30.18 851 25.13 2.8 37.1 64 -3.3 26
17:25 1022 30.18 851 25.13 3 37.5 65 -2.8 26.9
17:30 1022 30.18 851 25.13 3.1 37.5 65 -2.9 26.7
17:35 1022 30.18 851 25.13 2.9 37.2 64 -3.2 26.3
17:40 1022 30.18 851 25.13 2.8 37.1 64 -3.3 26.1
17:45 1022 30.18 851 25.13 3.2 37.8 64 -3 26.5
17:50 1022 30.18 851 25.13 3.2 37.8 65 -2.8 26.9
17:55 1022 30.18 851 25.13 3.5 38.3 61 -3.3 26
18:00 1022 30.18 851 25.13 3.4 38 64 -2.9 26.8
18:05 1022 30.18 851 25.13 2.9 37.2 67 -2.5 27.5
18:10 1022 30.18 851 25.13 2.5 36.4 70 -2.4 27.7
18:15 1022 30.18 851 25.13 2.2 36 73 -2.2 28.1
18:20 1022 30.18 851 25.13 1.8 35.2 76 -1.9 28.5
18:25 1022 30.18 851 25.13 1.8 35.2 77 -1.8 28.8
18:30 1022 30.18 851 25.13 1.7 35.1 76 -2 28.3
18:35 1022 30.18 851 25.13 1.5 34.8 76 -2.3 27.8
18:40 1022 30.18 851 25.13 1.5 34.8 74 -2.5 27.4
18:45 1022 30.18 851 25.13 1.6 34.8 75 -2.3 27.8
18:50 1022 30.18 851 25.13 1.7 35.1 74 -2.4 27.7
18:55 1022 30.18 851 25.13 1.7 35 71 -2.9 26.7
19:00 1022 30.18 851 25.13 1.8 35.3 73 -2.6 27.3
19:05 1022 30.18 851 25.13 1.8 35.3 72 -2.7 27.2
19:10 1022 30.18 851 25.13 1.9 35.4 71 -2.8 27
19:15 1022 30.18 851 25.13 2.3 36.1 69 -2.8 27
19:20 1022 30.18 851 25.13 2.5 36.4 69 -2.7 27.2
19:25 1022 30.18 851 25.13 2.1 35.8 69 -2.9 26.7
19:30 1022 30.18 851 25.13 1.9 35.5 68 -3.3 26
19:35 1022 30.18 851 25.13 2 35.7 67 -3.4 26
19:40 1022 30.18 851 25.13 2.2 35.9 65 -3.8 25.2
19:45 1022 30.18 851 25.13 2.4 36.2 64 -3.7 25.4
19:50 1022 30.18 852 25.16 2.2 36 65 -3.6 25.6
19:55 1022 30.18 852 25.16 2.2 36 65 -3.7 25.3
20:00 1022 30.18 852 25.16 2.2 35.9 67 -3.3 26
20:05 1022 30.18 852 25.16 2.2 36 67 -3.3 26
20:10 1023 30.21 852 25.16 2.1 35.7 71 -2.7 27.2
20:15 1023 30.21 852 25.16 2 35.6 71 -2.8 27
20:20 1023 30.21 852 25.16 1.9 35.5 69 -3.2 26.2
20:25 1023 30.21 852 25.16 1.9 35.4 70 -3 26.7
20:30 1023 30.21 852 25.16 2 35.6 70 -2.9 26.7
20:35 1023 30.21 852 25.16 1.9 35.5 68 -3.3 26.1
20:40 1023 30.21 852 25.16 1.8 35.3 72 -2.6 27.3
20:45 1023 30.21 852 25.16 1.6 34.9 74 -2.5 27.5
20:50 1023 30.21 852 25.16 1.4 34.5 76 -2.4 27.7
20:55 1023 30.21 852 25.16 1.1 34.1 77 -2.5 27.6
21:00 1023 30.21 852 25.16 1 33.8 78 -2.5 27.6
21:05 1023 30.21 852 25.16 1.1 33.9 76 -2.7 27.1
21:10 1023 30.21 852 25.16 1.1 34 77 -2.5 27.5
21:15 1023 30.21 852 25.16 0.8 33.4 78 -2.7 27.2
21:20 1023 30.21 852 25.16 0.6 33.2 75 -3.2 26.2
21:25 1023 30.21 852 25.16 0.8 33.4 77 -2.7 27.1
21:30 1023 30.21 853 25.19 0.7 33.2 78 -2.6 27.3
21:35 1023 30.21 853 25.19 0.6 33 79 -2.6 27.3
21:40 1024 30.24 853 25.19 0.5 32.9 80 -2.6 27.3
21:45 1024 30.24 853 25.19 0.4 32.7 82 -2.4 27.7
21:50 1024 30.24 853 25.19 0.4 32.7 81 -2.5 27.5
21:55 1024 30.24 853 25.19 0.2 32.4 83 -2.4 27.7
22:00 1024 30.24 853 25.19 -0.1 31.7 84 -2.5 27.6
22:05 1024 30.24 853 25.19 -0.3 31.5 84 -2.6 27.3
22:10 1024 30.24 853 25.19 -0.4 31.4 86 -2.4 27.7
22:15 1024 30.24 853 25.19 -0.4 31.3 87 -2.3 27.8
22:20 1024 30.24 853 25.19 -0.5 31.2 88 -2.3 27.9
22:25 1024 30.24 853 25.19 -0.6 30.9 88 -2.4 27.7
22:30 1024 30.24 853 25.19 -0.5 31 86 -2.6 27.3
22:35 1024 30.24 853 25.19 -0.5 31.2 84 -2.8 27
22:40 1024 30.24 853 25.19 -0.5 31.2 84 -2.9 26.8
22:45 1024 30.24 853 25.19 -0.5 31.1 84 -2.8 26.9
22:50 1024 30.24 853 25.19 -0.5 31 84 -3 26.7
22:55 1024 30.24 853 25.19 -0.6 30.9 84 -3 26.7
23:00 1024 30.24 853 25.19 -0.6 30.9 82 -3.3 26.1
23:05 1024 30.24 853 25.19 -0.4 31.2 82 -3.2 26.3
23:10 1024 30.24 853 25.19 -0.2 31.6 81 -3.1 26.4
23:15 1024 30.24 853 25.19 -0.2 31.6 81 -3.1 26.4
23:20 1024 30.24 853 25.19 -0.3 31.5 81 -3.1 26.4
23:25 1024 30.24 853 25.19 -0.3 31.4 78 -3.7 25.4
23:30 1024 30.24 853 25.19 -0.4 31.4 80 -3.5 25.8
23:35 1024 30.24 853 25.19 -0.6 30.9 80 -3.6 25.6
23:40 1024 30.24 853 25.19 -0.7 30.8 80 -3.7 25.3
23:45 1024 30.24 853 25.19 -0.5 31.1 79 -3.8 25.2
23:50 1024 30.24 853 25.19 -0.5 31 78 -3.9 25
23:55 1024 30.24 853 25.19 -0.7 30.7 81 -3.6 25.5
24:00 1024 30.24 853 25.19 -1.1 30.1 83 -3.6 25.5